createdAt,value
2019-02-24T00:01:54.306Z,6.00
2019-02-24T00:06:58.125Z,5.80
2019-02-24T00:12:01.932Z,6.40
2019-02-24T00:17:05.860Z,6.00
2019-02-24T00:22:09.656Z,6.00
2019-02-24T00:27:13.451Z,4.00
2019-02-24T00:32:17.239Z,6.00
2019-02-24T00:37:21.044Z,6.00
2019-02-24T00:42:24.859Z,6.00
2019-02-24T00:47:28.752Z,6.25
2019-02-24T00:52:32.624Z,6.00
2019-02-24T00:57:36.497Z,4.00
2019-02-24T01:02:40.375Z,6.25
2019-02-24T01:07:44.485Z,5.60
2019-02-24T01:12:48.270Z,5.80
2019-02-24T01:17:52.105Z,6.75
2019-02-24T01:22:55.895Z,5.00
2019-02-24T01:27:59.690Z,5.00
2019-02-24T01:33:03.486Z,6.00
2019-02-24T01:38:07.394Z,5.80
2019-02-24T01:43:11.168Z,6.25
2019-02-24T01:48:15.085Z,5.50
2019-02-24T01:53:19.024Z,4.00
2019-02-24T01:58:22.959Z,4.00
2019-02-24T02:03:26.802Z,4.00
2019-02-24T02:08:30.690Z,6.00
2019-02-24T02:13:34.612Z,4.50
2019-02-24T02:18:38.704Z,4.00
2019-02-24T02:23:42.501Z,6.75
2019-02-24T02:28:46.316Z,4.00
2019-02-24T02:33:50.179Z,5.00
2019-02-24T02:38:53.973Z,6.00
2019-02-24T02:43:57.847Z,4.50
2019-02-24T02:49:01.628Z,3.75
2019-02-24T02:54:05.625Z,3.75
2019-02-24T02:59:09.532Z,6.00
2019-02-24T03:04:13.313Z,4.00
2019-02-24T03:09:17.154Z,4.00
2019-02-24T03:14:20.960Z,4.20
2019-02-24T03:19:24.816Z,5.50
2019-02-24T03:24:28.632Z,6.00
2019-02-24T03:29:33.444Z,4.00
2019-02-24T03:34:37.257Z,5.50
2019-02-24T03:39:41.058Z,3.80
2019-02-24T03:44:44.957Z,5.20
2019-02-24T03:49:48.726Z,4.00
2019-02-24T03:54:52.527Z,6.00
2019-02-24T03:59:56.373Z,4.00
2019-02-24T04:05:00.234Z,3.50
2019-02-24T04:10:04.199Z,5.00
2019-02-24T04:15:08.026Z,4.00
2019-02-24T04:20:11.844Z,4.40
2019-02-24T04:25:15.760Z,4.00
2019-02-24T04:30:19.621Z,3.00
2019-02-24T04:35:23.437Z,3.00
2019-02-24T04:40:27.315Z,3.00
2019-02-24T04:45:31.118Z,3.20
2019-02-24T04:50:34.908Z,4.00
2019-02-24T04:55:38.671Z,2.25
2019-02-24T05:00:42.484Z,3.25
2019-02-24T05:05:46.282Z,3.75
2019-02-24T05:10:50.098Z,3.00
2019-02-24T05:15:53.871Z,3.50
2019-02-24T05:20:57.743Z,3.60
2019-02-24T05:26:01.519Z,3.00
2019-02-24T05:31:05.390Z,3.00
2019-02-24T05:36:09.328Z,3.40
2019-02-24T05:41:13.140Z,3.60
2019-02-24T05:46:16.926Z,3.25
2019-02-24T05:51:20.788Z,2.50
2019-02-24T05:56:24.660Z,3.00
2019-02-24T06:01:28.495Z,3.00
2019-02-24T06:06:32.299Z,3.60
2019-02-24T06:11:36.142Z,3.00
2019-02-24T06:16:39.973Z,3.75
2019-02-24T06:21:43.801Z,2.60
2019-02-24T06:26:47.601Z,3.00
2019-02-24T06:31:51.562Z,2.75
2019-02-24T06:36:55.360Z,3.00
2019-02-24T06:41:59.298Z,3.20
2019-02-24T06:47:03.081Z,4.00
2019-02-24T06:52:06.887Z,3.00
2019-02-24T06:57:10.769Z,3.00
2019-02-24T07:02:14.560Z,3.00
2019-02-24T07:07:18.367Z,3.00
2019-02-24T07:12:22.192Z,3.00
2019-02-24T07:17:26.075Z,3.00
2019-02-24T07:22:29.881Z,2.20
2019-02-24T07:27:33.669Z,2.75
2019-02-24T07:32:37.542Z,3.00
2019-02-24T07:37:41.323Z,2.00
2019-02-24T07:42:45.182Z,3.75
2019-02-24T07:47:48.982Z,3.40
2019-02-24T07:52:52.994Z,2.80
2019-02-24T07:57:56.903Z,3.00
2019-02-24T08:03:00.721Z,15.00
2019-02-24T08:08:04.517Z,14.00
2019-02-24T08:13:08.362Z,12.00
2019-02-24T08:18:12.191Z,12.00
2019-02-24T08:23:16.058Z,11.00
2019-02-24T08:28:19.902Z,9.25
2019-02-24T08:33:23.776Z,10.00
2019-02-24T08:38:27.586Z,11.50
2019-02-24T08:43:31.388Z,11.00
2019-02-24T08:48:35.243Z,9.80
2019-02-24T08:53:39.088Z,9.00
2019-02-24T08:58:42.902Z,8.25
2019-02-24T09:03:46.706Z,7.75
2019-02-24T09:08:50.498Z,8.20
2019-02-24T09:13:54.312Z,8.00
2019-02-24T09:18:58.150Z,7.50
2019-02-24T09:24:02.001Z,7.50
2019-02-24T09:29:05.821Z,8.00
2019-02-24T09:34:09.634Z,7.50
2019-02-24T09:39:13.533Z,8.00
2019-02-24T09:44:17.371Z,7.00
2019-02-24T09:49:21.178Z,7.20
2019-02-24T09:54:25.001Z,6.40
2019-02-24T09:59:28.854Z,7.00
2019-02-24T10:04:32.675Z,6.00
2019-02-24T10:09:36.478Z,7.00
2019-02-24T10:14:40.325Z,7.00
2019-02-24T10:19:44.185Z,7.00
2019-02-24T10:24:47.982Z,7.20
2019-02-24T10:29:51.873Z,5.50
2019-02-24T10:34:55.749Z,7.50
2019-02-24T10:39:59.634Z,7.25
2019-02-24T10:45:03.642Z,6.00
2019-02-24T10:50:09.582Z,8.00
2019-02-24T10:55:13.373Z,7.25
2019-02-24T11:00:17.610Z,6.00
2019-02-24T11:05:21.404Z,6.25
2019-02-24T11:10:25.185Z,6.75
2019-02-24T11:15:28.969Z,7.00
2019-02-24T11:20:32.943Z,6.25
2019-02-24T11:25:36.798Z,6.00
2019-02-24T11:30:40.585Z,6.00
2019-02-24T11:35:44.369Z,5.00
2019-02-24T11:40:48.158Z,6.00
2019-02-24T11:45:51.960Z,6.40
2019-02-24T11:50:55.738Z,6.00
2019-02-24T11:55:59.528Z,7.00
2019-02-24T12:01:03.387Z,7.75
2019-02-24T12:06:07.161Z,8.20
2019-02-24T12:11:10.947Z,7.00
2019-02-24T12:16:14.871Z,8.75
2019-02-24T12:21:18.683Z,9.00
2019-02-24T12:26:22.466Z,8.00
2019-02-24T12:31:26.243Z,8.60
2019-02-24T12:36:30.181Z,8.00
2019-02-24T12:41:34.081Z,8.00
2019-02-24T12:46:37.868Z,8.00
2019-02-24T12:51:41.733Z,7.00
2019-02-24T12:56:45.541Z,7.00
2019-02-24T13:01:49.403Z,9.00
2019-02-24T13:06:53.218Z,7.25
2019-02-24T13:11:57.017Z,7.75
2019-02-24T13:17:00.797Z,7.00
2019-02-24T13:22:04.670Z,7.25
2019-02-24T13:27:08.513Z,6.00
2019-02-24T13:32:14.903Z,4.00
2019-02-24T13:37:17.915Z,6.75
2019-02-24T13:42:21.884Z,7.00
2019-02-24T13:47:25.676Z,6.00
2019-02-24T13:52:29.647Z,6.50
2019-02-24T13:57:33.507Z,6.00
2019-02-24T14:02:37.336Z,6.50
2019-02-24T14:07:41.178Z,7.00
2019-02-24T14:12:45.071Z,6.00
2019-02-24T14:17:48.952Z,7.00
2019-02-24T14:22:52.727Z,7.00
2019-02-24T14:27:56.507Z,7.75
2019-02-24T14:33:00.379Z,7.00
2019-02-24T14:38:04.393Z,4.80
2019-02-24T14:43:08.283Z,5.50
2019-02-24T14:48:12.085Z,6.25
2019-02-24T14:53:15.872Z,5.00
2019-02-24T14:58:19.974Z,6.20
2019-02-24T15:03:23.823Z,5.00
2019-02-24T15:08:27.868Z,4.80
2019-02-24T15:13:31.652Z,4.00
2019-02-24T15:18:35.685Z,6.00
2019-02-24T15:23:39.488Z,4.00
2019-02-24T15:28:43.281Z,6.00
2019-02-24T15:33:47.084Z,4.00
2019-02-24T15:38:50.894Z,5.00
2019-02-24T15:43:54.691Z,4.00
2019-02-24T15:48:58.485Z,4.00
2019-02-24T15:54:02.353Z,4.00
2019-02-24T15:59:06.181Z,4.00
2019-02-24T16:04:10.010Z,5.60
2019-02-24T16:09:13.818Z,3.00
2019-02-24T16:14:17.639Z,5.50
2019-02-24T16:19:21.599Z,4.00
2019-02-24T16:24:25.411Z,5.60
2019-02-24T16:29:29.273Z,4.00
2019-02-24T16:34:33.163Z,4.40
2019-02-24T16:39:37.021Z,3.75
2019-02-24T16:44:40.852Z,3.25
2019-02-24T16:49:44.672Z,3.00
2019-02-24T16:54:52.708Z,3.00
2019-02-24T16:59:54.048Z,3.00
2019-02-24T17:04:57.871Z,4.00
2019-02-24T17:10:01.672Z,3.00
2019-02-24T17:15:06.881Z,4.00
2019-02-24T17:20:12.513Z,3.80
2019-02-24T17:25:16.297Z,3.00
2019-02-24T17:30:20.119Z,3.00
2019-02-24T17:35:23.948Z,3.00
2019-02-24T17:40:27.798Z,3.00
2019-02-24T17:45:31.665Z,3.50
2019-02-24T17:50:35.411Z,3.00
2019-02-24T17:55:39.277Z,3.00
2019-02-24T18:00:47.974Z,3.00
2019-02-24T18:05:51.810Z,3.00
2019-02-24T18:10:55.632Z,3.00
2019-02-24T18:15:59.474Z,2.20
2019-02-24T18:21:03.265Z,3.00
2019-02-24T18:26:07.052Z,2.50
2019-02-24T18:31:10.914Z,2.00
2019-02-24T18:36:14.691Z,3.00
2019-02-24T18:41:18.495Z,2.00
2019-02-24T18:46:22.274Z,3.00
2019-02-24T18:51:26.055Z,3.25
2019-02-24T18:56:29.863Z,2.00
2019-02-24T19:01:33.639Z,3.00
2019-02-24T19:06:39.343Z,2.25
2019-02-24T19:11:42.939Z,2.00
2019-02-24T19:16:46.717Z,2.75
2019-02-24T19:21:50.604Z,2.00
2019-02-24T19:26:54.380Z,2.40
2019-02-24T19:31:58.265Z,2.25
2019-02-24T19:37:02.045Z,2.00
2019-02-24T19:42:05.964Z,3.00
2019-02-24T19:47:09.828Z,2.25
2019-02-24T19:52:13.608Z,2.00
2019-02-24T19:57:17.389Z,1.75
2019-02-24T20:02:21.165Z,2.00
2019-02-24T20:07:24.942Z,2.00
2019-02-24T20:12:28.784Z,2.00
2019-02-24T20:17:32.635Z,2.00
2019-02-24T20:22:36.524Z,2.50
2019-02-24T20:27:40.383Z,1.80
2019-02-24T20:32:44.190Z,2.00
2019-02-24T20:37:48.094Z,2.00
2019-02-24T20:42:51.895Z,2.00
2019-02-24T20:47:55.700Z,2.00
2019-02-24T20:52:59.482Z,2.00
2019-02-24T20:58:03.323Z,2.20
2019-02-24T21:03:07.103Z,2.00
2019-02-24T21:08:10.897Z,2.00
2019-02-24T21:13:16.689Z,2.75
2019-02-24T21:18:20.229Z,2.00
2019-02-24T21:23:30.005Z,2.00
2019-02-24T21:28:34.118Z,2.00
2019-02-24T21:33:38.011Z,2.00
2019-02-24T21:38:41.887Z,2.00
2019-02-24T21:43:45.667Z,2.00
2019-02-24T21:48:49.462Z,2.00
2019-02-24T21:53:53.292Z,2.50
2019-02-24T21:58:57.076Z,2.00
2019-02-24T22:04:00.898Z,2.00
2019-02-24T22:09:06.328Z,1.25
2019-02-24T22:14:10.119Z,2.00
2019-02-24T22:19:14.137Z,2.00
2019-02-24T22:24:18.027Z,1.80
2019-02-24T22:29:21.929Z,2.00
2019-02-24T22:34:25.702Z,2.00
2019-02-24T22:39:29.551Z,2.00
2019-02-24T22:44:33.411Z,1.50
2019-02-24T22:49:37.263Z,2.80
2019-02-24T22:54:41.128Z,2.00
2019-02-24T22:59:44.990Z,2.00
2019-02-24T23:04:48.849Z,2.00
2019-02-24T23:09:52.746Z,2.00
2019-02-24T23:14:56.639Z,2.00
2019-02-24T23:20:00.536Z,1.75
2019-02-24T23:25:04.466Z,2.00
2019-02-24T23:30:08.376Z,2.00
2019-02-24T23:35:12.187Z,2.00
2019-02-24T23:40:16.123Z,2.00
2019-02-24T23:45:20.141Z,1.00
2019-02-24T23:50:24.029Z,2.00
2019-02-24T23:55:27.886Z,2.00
